createdAt,value
2022-07-26T00:01:50.266Z,4.80
2022-07-26T00:04:17.987Z,4.00
2022-07-26T00:06:45.806Z,4.73
2022-07-26T00:09:13.479Z,4.33
2022-07-26T00:11:42.546Z,4.67
2022-07-26T00:14:10.455Z,3.67
2022-07-26T00:16:38.825Z,4.53
2022-07-26T00:19:07.683Z,4.30
2022-07-26T00:21:36.868Z,4.27
2022-07-26T00:24:09.394Z,4.30
2022-07-26T00:26:37.243Z,4.40
2022-07-26T00:29:06.978Z,4.30
2022-07-26T00:31:34.934Z,3.80
2022-07-26T00:34:02.723Z,3.23
2022-07-26T00:36:30.457Z,3.70
2022-07-26T00:38:58.071Z,4.67
2022-07-26T00:41:25.786Z,3.80
2022-07-26T00:43:57.508Z,3.40
2022-07-26T00:46:26.787Z,3.67
2022-07-26T00:48:54.928Z,4.13
2022-07-26T00:51:22.725Z,3.90
2022-07-26T00:53:50.803Z,4.00
2022-07-26T00:56:19.012Z,3.67
2022-07-26T00:58:46.689Z,3.20
2022-07-26T01:01:14.404Z,2.63
2022-07-26T01:03:43.963Z,3.60
2022-07-26T01:06:11.828Z,3.07
2022-07-26T01:08:39.541Z,2.60
2022-07-26T01:11:07.377Z,3.20
2022-07-26T01:13:35.724Z,3.20
2022-07-26T01:16:03.901Z,3.60
2022-07-26T01:18:31.563Z,3.37
2022-07-26T01:21:13.759Z,3.50
2022-07-26T01:23:44.089Z,3.93
2022-07-26T01:26:11.843Z,3.23
2022-07-26T01:28:41.864Z,3.90
2022-07-26T01:31:09.791Z,3.57
2022-07-26T01:33:37.483Z,3.80
2022-07-26T01:36:05.488Z,3.00
2022-07-26T01:38:33.084Z,4.50
2022-07-26T01:41:02.062Z,3.60
2022-07-26T01:43:29.833Z,3.33
2022-07-26T01:45:57.454Z,3.80
2022-07-26T01:48:25.308Z,3.77
2022-07-26T01:50:52.878Z,3.90
2022-07-26T01:53:20.431Z,3.37
2022-07-26T01:55:48.010Z,2.57
2022-07-26T01:58:16.928Z,4.70
2022-07-26T02:00:44.569Z,3.10
2022-07-26T02:03:12.463Z,4.03
2022-07-26T02:05:40.119Z,3.50
2022-07-26T02:08:07.652Z,3.37
2022-07-26T02:10:54.927Z,3.40
2022-07-26T02:13:26.585Z,3.37
2022-07-26T02:15:54.301Z,4.13
2022-07-26T02:18:21.872Z,4.50
2022-07-26T02:20:49.434Z,3.17
2022-07-26T02:23:16.928Z,3.00
2022-07-26T02:25:44.476Z,3.80
2022-07-26T02:28:12.116Z,3.53
2022-07-26T02:30:41.067Z,4.20
2022-07-26T02:33:08.641Z,3.57
2022-07-26T02:35:36.370Z,3.53
2022-07-26T02:38:04.597Z,4.43
2022-07-26T02:40:32.857Z,3.77
2022-07-26T02:43:00.702Z,4.40
2022-07-26T02:45:28.464Z,4.00
2022-07-26T02:47:57.462Z,3.77
2022-07-26T02:50:26.379Z,4.30
2022-07-26T02:52:54.669Z,3.60
2022-07-26T02:55:24.718Z,3.23
2022-07-26T02:57:52.974Z,3.53
2022-07-26T03:00:22.717Z,4.03
2022-07-26T03:02:51.342Z,3.70
2022-07-26T03:05:38.360Z,3.43
2022-07-26T03:08:06.338Z,4.13
2022-07-26T03:10:33.917Z,3.50
2022-07-26T03:13:02.002Z,3.97
2022-07-26T03:15:29.707Z,3.90
2022-07-26T03:17:57.489Z,3.67
2022-07-26T03:20:25.141Z,4.30
2022-07-26T03:22:54.070Z,3.57
2022-07-26T03:25:21.860Z,3.70
2022-07-26T03:27:49.419Z,3.70
2022-07-26T03:30:17.050Z,4.27
2022-07-26T03:32:52.617Z,3.73
2022-07-26T03:35:20.196Z,3.90
2022-07-26T03:37:47.964Z,3.60
2022-07-26T03:40:17.752Z,3.27
2022-07-26T03:42:46.113Z,3.43
2022-07-26T03:45:14.600Z,3.33
2022-07-26T03:47:42.271Z,3.87
2022-07-26T03:50:13.482Z,3.50
2022-07-26T03:52:41.126Z,3.80
2022-07-26T03:55:23.613Z,4.13
2022-07-26T03:57:52.498Z,4.23
2022-07-26T04:00:20.100Z,3.67
2022-07-26T04:02:47.766Z,4.07
2022-07-26T04:05:15.464Z,3.67
2022-07-26T04:07:43.626Z,4.03
2022-07-26T04:10:20.616Z,3.87
2022-07-26T04:12:48.148Z,3.30
2022-07-26T04:15:19.184Z,4.90
2022-07-26T04:17:48.263Z,4.57
2022-07-26T04:20:16.673Z,4.03
2022-07-26T04:22:44.895Z,3.63
2022-07-26T04:25:12.748Z,4.00
2022-07-26T04:27:40.328Z,4.70
2022-07-26T04:30:14.447Z,4.23
2022-07-26T04:32:44.397Z,4.20
2022-07-26T04:35:14.738Z,5.33
2022-07-26T04:37:43.357Z,3.70
2022-07-26T04:40:13.189Z,4.60
2022-07-26T04:42:40.806Z,4.43
2022-07-26T04:45:10.843Z,4.17
2022-07-26T04:47:38.409Z,4.20
2022-07-26T04:50:09.183Z,4.70
2022-07-26T04:52:36.830Z,4.40
2022-07-26T04:55:06.215Z,3.33
2022-07-26T04:57:33.909Z,2.93
2022-07-26T05:00:20.687Z,3.00
2022-07-26T05:02:49.257Z,2.00
2022-07-26T05:05:18.156Z,2.50
2022-07-26T05:07:47.341Z,2.20
2022-07-26T05:10:16.131Z,3.20
2022-07-26T05:12:43.838Z,3.13
2022-07-26T05:15:13.803Z,3.00
2022-07-26T05:17:43.674Z,2.90
2022-07-26T05:20:13.194Z,3.20
2022-07-26T05:22:42.135Z,2.77
2022-07-26T05:25:10.187Z,3.50
2022-07-26T05:27:38.994Z,3.10
2022-07-26T05:30:07.535Z,3.07
2022-07-26T05:32:35.079Z,3.43
2022-07-26T05:35:02.627Z,3.00
2022-07-26T05:37:30.183Z,3.03
2022-07-26T05:39:59.153Z,3.37
2022-07-26T05:42:26.766Z,3.80
2022-07-26T05:44:54.384Z,3.20
2022-07-26T05:47:23.563Z,3.20
2022-07-26T05:49:51.120Z,3.90
2022-07-26T05:52:18.647Z,4.37
2022-07-26T05:54:46.139Z,3.47
2022-07-26T05:57:15.010Z,3.50
2022-07-26T05:59:42.543Z,4.00
2022-07-26T06:02:10.135Z,3.40
2022-07-26T06:04:37.783Z,3.80
2022-07-26T06:07:05.547Z,3.63
2022-07-26T06:09:33.077Z,3.37
2022-07-26T06:12:00.609Z,3.53
2022-07-26T06:14:29.442Z,3.57
2022-07-26T06:16:56.973Z,4.03
2022-07-26T06:19:24.621Z,3.70
2022-07-26T06:21:52.200Z,4.30
2022-07-26T06:24:19.725Z,3.20
2022-07-26T06:26:54.718Z,3.60
2022-07-26T06:29:32.002Z,4.40
2022-07-26T06:32:01.996Z,4.10
2022-07-26T06:34:29.835Z,3.93
2022-07-26T06:36:57.388Z,3.40
2022-07-26T06:39:25.245Z,4.10
2022-07-26T06:41:52.798Z,4.10
2022-07-26T06:44:23.343Z,2.97
2022-07-26T06:46:50.878Z,3.33
2022-07-26T06:49:22.707Z,3.23
2022-07-26T06:51:50.856Z,3.80
2022-07-26T06:54:18.519Z,3.17
2022-07-26T06:56:46.071Z,3.73
2022-07-26T06:59:13.584Z,3.60
2022-07-26T07:01:57.746Z,2.60
2022-07-26T07:04:30.052Z,1.90
2022-07-26T07:07:23.203Z,2.20
2022-07-26T07:09:50.886Z,2.63
2022-07-26T07:12:18.715Z,2.77
2022-07-26T07:14:46.475Z,2.10
2022-07-26T07:17:18.460Z,1.90
2022-07-26T07:19:49.171Z,2.23
2022-07-26T07:22:16.916Z,2.00
2022-07-26T07:24:44.607Z,2.00
2022-07-26T07:27:14.593Z,1.60
2022-07-26T07:29:43.532Z,1.50
2022-07-26T07:32:18.089Z,1.60
2022-07-26T07:34:47.750Z,1.53
2022-07-26T07:37:17.277Z,1.90
2022-07-26T07:39:49.945Z,1.20
2022-07-26T07:42:18.511Z,1.60
2022-07-26T07:44:46.177Z,1.50
2022-07-26T07:47:14.096Z,1.10
2022-07-26T07:49:41.732Z,1.60
2022-07-26T07:52:09.241Z,2.50
2022-07-26T07:54:38.066Z,1.20
2022-07-26T07:57:05.858Z,1.30
2022-07-26T07:59:33.616Z,1.20
2022-07-26T08:02:07.162Z,1.13
2022-07-26T08:04:34.879Z,1.10
2022-07-26T08:07:02.891Z,1.40
2022-07-26T08:09:30.659Z,1.40
2022-07-26T08:12:03.237Z,1.30
2022-07-26T08:14:31.207Z,1.70
2022-07-26T08:16:59.077Z,1.00
2022-07-26T08:19:41.950Z,1.60
2022-07-26T08:22:10.368Z,1.90
2022-07-26T08:24:38.307Z,1.53
2022-07-26T08:27:07.738Z,1.20
2022-07-26T08:29:35.435Z,1.30
2022-07-26T08:32:03.256Z,1.50
2022-07-26T08:34:31.163Z,2.10
2022-07-26T08:37:15.872Z,1.50
2022-07-26T08:39:45.483Z,1.10
2022-07-26T08:42:22.862Z,1.27
2022-07-26T08:44:51.052Z,1.30
2022-07-26T08:47:37.857Z,1.50
2022-07-26T08:50:10.545Z,1.40
2022-07-26T08:52:39.692Z,1.27
2022-07-26T08:55:08.241Z,0.93
2022-07-26T08:57:38.396Z,0.60
2022-07-26T09:00:16.466Z,1.23
2022-07-26T09:02:44.076Z,0.93
2022-07-26T09:05:12.091Z,1.50
2022-07-26T09:07:41.394Z,1.13
2022-07-26T09:10:10.927Z,1.20
2022-07-26T09:12:40.621Z,0.90
2022-07-26T09:15:18.898Z,0.90
2022-07-26T09:17:48.837Z,1.17
2022-07-26T09:20:24.059Z,0.83
2022-07-26T09:23:03.491Z,1.47
2022-07-26T09:25:33.373Z,1.47
2022-07-26T09:28:03.176Z,1.30
2022-07-26T09:30:32.544Z,0.80
2022-07-26T09:33:03.341Z,0.80
2022-07-26T09:35:50.910Z,1.47
2022-07-26T09:38:19.746Z,0.83
2022-07-26T09:40:51.143Z,1.10
2022-07-26T09:43:24.403Z,0.97
2022-07-26T09:46:04.812Z,1.30
2022-07-26T09:48:59.418Z,1.10
2022-07-26T09:51:36.886Z,2.00
2022-07-26T09:54:04.808Z,1.20
2022-07-26T09:56:47.775Z,1.17
2022-07-26T09:59:19.204Z,0.90
2022-07-26T10:01:47.550Z,1.20
2022-07-26T10:04:15.831Z,1.30
2022-07-26T10:06:44.211Z,1.20
2022-07-26T10:09:13.108Z,1.50
2022-07-26T10:11:43.962Z,1.20
2022-07-26T10:14:43.357Z,1.47
2022-07-26T10:17:51.114Z,1.47
2022-07-26T10:20:41.920Z,0.80
2022-07-26T10:23:35.509Z,0.83
2022-07-26T10:26:03.963Z,1.40
2022-07-26T10:28:33.844Z,1.20
2022-07-26T10:31:30.472Z,1.20
2022-07-26T10:34:01.020Z,1.30
2022-07-26T10:36:32.327Z,1.10
2022-07-26T10:39:02.423Z,1.00
2022-07-26T10:41:35.761Z,1.50
2022-07-26T10:44:21.918Z,1.60
2022-07-26T10:47:05.672Z,1.20
2022-07-26T10:49:36.554Z,0.70
2022-07-26T10:52:11.973Z,1.17
2022-07-26T10:55:06.344Z,0.90
2022-07-26T10:57:35.117Z,1.53
2022-07-26T11:00:04.818Z,1.00
2022-07-26T11:02:35.187Z,0.87
2022-07-26T11:05:03.710Z,1.10
2022-07-26T11:07:32.107Z,1.43
2022-07-26T11:10:00.574Z,1.30
2022-07-26T11:12:30.165Z,1.40
2022-07-26T11:14:59.461Z,1.00
2022-07-26T11:17:28.036Z,1.73
2022-07-26T11:19:59.051Z,1.37
2022-07-26T11:22:32.276Z,1.53
2022-07-26T11:24:59.925Z,1.53
2022-07-26T11:27:27.573Z,1.43
2022-07-26T11:29:55.424Z,1.67
2022-07-26T11:32:26.533Z,1.57
2022-07-26T11:35:00.862Z,1.30
2022-07-26T11:37:29.888Z,2.13
2022-07-26T11:39:57.888Z,1.77
2022-07-26T11:42:25.419Z,1.40
2022-07-26T11:44:53.887Z,1.67
2022-07-26T11:47:25.387Z,1.60
2022-07-26T11:52:42.496Z,1.90
2022-07-26T11:55:10.771Z,1.77
2022-07-26T11:57:38.449Z,2.03
2022-07-26T12:00:07.641Z,3.57
2022-07-26T12:02:41.238Z,1.90
2022-07-26T12:05:17.041Z,1.90
2022-07-26T12:07:58.292Z,3.03
2022-07-26T12:10:26.258Z,2.30
2022-07-26T12:13:08.338Z,2.30
2022-07-26T12:15:46.250Z,1.87
2022-07-26T12:18:26.725Z,2.97
2022-07-26T12:21:04.087Z,1.97
2022-07-26T12:23:43.365Z,1.60
2022-07-26T12:26:24.959Z,1.93
2022-07-26T12:28:52.879Z,1.43
2022-07-26T12:31:28.184Z,1.50
2022-07-26T12:33:56.196Z,1.53
2022-07-26T12:36:27.424Z,2.00
2022-07-26T12:38:58.597Z,1.63
2022-07-26T12:41:33.947Z,1.90
2022-07-26T12:44:01.687Z,1.33
2022-07-26T12:46:33.231Z,1.37
2022-07-26T12:49:01.206Z,1.70
2022-07-26T12:51:29.178Z,2.30
2022-07-26T12:53:58.303Z,1.93
2022-07-26T12:56:26.009Z,1.90
2022-07-26T12:58:54.140Z,2.47
2022-07-26T13:01:21.958Z,1.93
2022-07-26T13:03:49.574Z,2.37
2022-07-26T13:06:17.194Z,2.10
2022-07-26T13:08:44.962Z,1.57
2022-07-26T13:11:13.916Z,1.53
2022-07-26T13:13:41.844Z,2.07
2022-07-26T13:16:12.345Z,1.27
2022-07-26T13:18:40.217Z,1.80
2022-07-26T13:21:08.090Z,1.70
2022-07-26T13:23:36.040Z,1.60
2022-07-26T13:26:04.229Z,1.90
2022-07-26T13:28:33.358Z,1.60
2022-07-26T13:31:02.135Z,1.93
2022-07-26T13:33:29.805Z,2.40
2022-07-26T13:35:58.566Z,1.63
2022-07-26T13:38:27.947Z,2.00
2022-07-26T13:40:56.591Z,1.80
2022-07-26T13:43:24.855Z,1.73
2022-07-26T13:45:53.981Z,2.67
2022-07-26T13:48:21.539Z,1.70
2022-07-26T13:50:49.746Z,1.50
2022-07-26T13:53:17.625Z,1.60
2022-07-26T13:55:45.223Z,1.90
2022-07-26T13:58:12.951Z,1.60
2022-07-26T14:00:41.847Z,1.37
2022-07-26T14:03:10.964Z,1.73
2022-07-26T14:05:38.582Z,1.70
2022-07-26T14:08:06.211Z,2.00
2022-07-26T14:10:38.043Z,1.47
2022-07-26T14:13:05.656Z,1.00
2022-07-26T14:15:33.711Z,1.37
2022-07-26T14:18:02.977Z,1.40
2022-07-26T14:20:31.948Z,1.40
2022-07-26T14:23:00.251Z,1.60
2022-07-26T14:25:29.042Z,1.00
2022-07-26T14:27:57.013Z,1.57
2022-07-26T14:30:24.785Z,1.40
2022-07-26T14:32:52.570Z,1.60
2022-07-26T14:35:20.151Z,1.07
2022-07-26T14:37:49.133Z,2.07
2022-07-26T14:40:17.759Z,1.70
2022-07-26T14:42:45.917Z,1.27
2022-07-26T14:45:13.521Z,1.67
2022-07-26T14:47:41.179Z,2.07
2022-07-26T14:50:10.430Z,1.50
2022-07-26T14:52:39.115Z,1.30
2022-07-26T14:55:09.258Z,1.40
2022-07-26T14:57:49.161Z,1.80
2022-07-26T15:00:18.900Z,1.33
2022-07-26T15:02:48.459Z,1.90
2022-07-26T15:05:16.947Z,1.93
2022-07-26T15:07:45.569Z,1.70
2022-07-26T15:10:15.365Z,2.00
2022-07-26T15:12:43.449Z,1.40
2022-07-26T15:15:12.220Z,1.50
2022-07-26T15:17:39.744Z,1.80
2022-07-26T15:20:08.631Z,1.60
2022-07-26T15:22:38.479Z,1.47
2022-07-26T15:25:07.137Z,2.13
2022-07-26T15:27:39.457Z,1.40
2022-07-26T15:30:13.335Z,1.30
2022-07-26T15:32:42.901Z,1.63
2022-07-26T15:35:14.719Z,1.40
2022-07-26T15:37:43.678Z,1.70
2022-07-26T15:40:12.619Z,2.17
2022-07-26T15:42:44.165Z,1.60
2022-07-26T15:45:13.520Z,1.93
2022-07-26T15:48:05.530Z,1.67
2022-07-26T15:50:29.519Z,1.70
2022-07-26T15:52:57.295Z,1.20
2022-07-26T15:55:24.890Z,1.63
2022-07-26T15:57:54.257Z,1.30
2022-07-26T16:00:22.024Z,1.60
2022-07-26T16:02:49.761Z,1.40
2022-07-26T16:05:17.515Z,1.37
2022-07-26T16:07:45.502Z,1.53
2022-07-26T16:10:14.822Z,2.00
2022-07-26T16:12:42.570Z,2.67
2022-07-26T16:15:13.107Z,1.77
2022-07-26T16:17:41.139Z,1.90
2022-07-26T16:20:09.532Z,1.40
2022-07-26T16:22:40.795Z,1.10
2022-07-26T16:25:09.492Z,1.33
2022-07-26T16:27:37.041Z,1.77
2022-07-26T16:30:05.725Z,1.50
2022-07-26T16:32:34.653Z,1.40
2022-07-26T16:35:02.298Z,1.67
2022-07-26T16:37:29.925Z,2.03
2022-07-26T16:39:57.451Z,1.90
2022-07-26T16:42:25.095Z,1.60
2022-07-26T16:44:52.684Z,2.40
2022-07-26T16:47:20.221Z,1.60
2022-07-26T16:49:49.266Z,1.40
2022-07-26T16:52:16.903Z,1.73
2022-07-26T16:54:44.479Z,1.33
2022-07-26T16:57:12.125Z,1.93
2022-07-26T16:59:39.870Z,1.90
2022-07-26T17:02:08.915Z,1.40
2022-07-26T17:04:36.530Z,1.37
2022-07-26T17:07:24.560Z,1.17
2022-07-26T17:09:53.024Z,1.30
2022-07-26T17:12:20.941Z,1.60
2022-07-26T17:14:48.681Z,1.57
2022-07-26T17:17:16.259Z,1.10
2022-07-26T17:19:43.791Z,1.20
2022-07-26T17:22:13.059Z,1.30
2022-07-26T17:24:41.475Z,1.43
2022-07-26T17:27:09.479Z,1.53
2022-07-26T17:29:37.456Z,1.23
2022-07-26T17:32:05.541Z,1.00
2022-07-26T17:34:33.438Z,1.00
2022-07-26T17:37:03.016Z,1.00
2022-07-26T17:39:52.069Z,1.13
2022-07-26T17:42:20.561Z,1.00
2022-07-26T17:44:48.132Z,1.47
2022-07-26T17:47:27.768Z,1.17
2022-07-26T17:50:14.177Z,1.90
2022-07-26T17:52:47.509Z,1.60
2022-07-26T17:55:18.388Z,1.03
2022-07-26T17:57:46.379Z,1.50
2022-07-26T18:00:15.407Z,1.03
2022-07-26T18:02:43.252Z,1.17
2022-07-26T18:05:12.136Z,1.57
2022-07-26T18:07:40.123Z,1.50
2022-07-26T18:10:10.165Z,1.63
2022-07-26T18:12:39.246Z,1.30
2022-07-26T18:15:08.111Z,1.63
2022-07-26T18:17:36.327Z,1.70
2022-07-26T18:20:05.064Z,1.10
2022-07-26T18:22:32.780Z,1.00
2022-07-26T18:25:00.390Z,1.23
2022-07-26T18:27:28.497Z,1.40
2022-07-26T18:29:58.019Z,1.10
2022-07-26T18:32:26.159Z,1.50
2022-07-26T18:34:54.293Z,2.07
2022-07-26T18:37:22.693Z,1.10
2022-07-26T18:39:55.483Z,1.47
2022-07-26T18:42:25.579Z,1.03
2022-07-26T18:44:53.454Z,1.97
2022-07-26T18:47:23.109Z,2.80
2022-07-26T18:49:51.624Z,1.67
2022-07-26T18:52:31.657Z,1.40
2022-07-26T18:55:01.041Z,1.47
2022-07-26T18:57:28.812Z,1.40
2022-07-26T18:59:57.069Z,1.60
2022-07-26T19:02:26.319Z,1.47
2022-07-26T19:04:54.690Z,1.53
2022-07-26T19:07:22.546Z,1.73
2022-07-26T19:09:54.929Z,1.80
2022-07-26T19:12:25.630Z,1.37
2022-07-26T19:14:53.305Z,1.20
2022-07-26T19:17:20.960Z,1.73
2022-07-26T19:19:50.130Z,1.27
2022-07-26T19:22:17.760Z,1.33
2022-07-26T19:24:45.471Z,1.90
2022-07-26T19:27:14.968Z,1.80
2022-07-26T19:29:42.743Z,1.60
2022-07-26T19:32:10.603Z,1.23
2022-07-26T19:34:38.272Z,1.23
2022-07-26T19:37:07.381Z,1.27
2022-07-26T19:39:35.101Z,1.80
2022-07-26T19:42:02.856Z,2.07
2022-07-26T19:44:30.720Z,1.47
2022-07-26T19:46:58.356Z,1.03
2022-07-26T19:49:26.227Z,2.00
2022-07-26T19:51:54.191Z,1.20
2022-07-26T19:54:23.338Z,1.33
2022-07-26T19:56:50.953Z,1.27
2022-07-26T19:59:23.442Z,1.00
2022-07-26T20:01:52.889Z,1.33
2022-07-26T20:04:21.148Z,1.43
2022-07-26T20:06:50.380Z,2.10
2022-07-26T20:09:18.041Z,0.90
2022-07-26T20:11:50.755Z,1.53
2022-07-26T20:14:18.900Z,2.03
2022-07-26T20:16:46.982Z,1.20
2022-07-26T20:19:14.755Z,1.10
2022-07-26T20:21:42.687Z,1.40
2022-07-26T20:24:11.047Z,1.60
2022-07-26T20:26:38.728Z,1.00
2022-07-26T20:29:08.557Z,1.37
2022-07-26T20:31:36.432Z,1.47
2022-07-26T20:34:04.190Z,1.20
2022-07-26T20:36:31.942Z,1.53
2022-07-26T20:39:00.435Z,1.50
2022-07-26T20:41:28.058Z,1.27
2022-07-26T20:44:01.821Z,2.90
2022-07-26T20:46:30.847Z,1.37
2022-07-26T20:48:58.728Z,1.60
2022-07-26T20:51:26.531Z,1.83
2022-07-26T20:53:54.314Z,1.40
2022-07-26T20:56:21.934Z,1.50
2022-07-26T20:58:49.906Z,1.30
2022-07-26T21:01:17.613Z,1.70
2022-07-26T21:03:46.585Z,1.20
2022-07-26T21:06:14.311Z,1.50
2022-07-26T21:08:42.042Z,1.30
2022-07-26T21:11:09.778Z,1.13
2022-07-26T21:13:37.778Z,1.40
2022-07-26T21:16:05.960Z,1.37
2022-07-26T21:18:38.343Z,1.70
2022-07-26T21:21:07.392Z,1.47
2022-07-26T21:23:35.247Z,1.57
2022-07-26T21:26:03.355Z,2.00
2022-07-26T21:28:31.172Z,1.33
2022-07-26T21:30:58.877Z,1.77
2022-07-26T21:33:26.858Z,1.33
2022-07-26T21:35:54.617Z,1.57
2022-07-26T21:38:23.732Z,1.50
2022-07-26T21:40:58.555Z,1.50
2022-07-26T21:43:26.453Z,1.33
2022-07-26T21:45:54.163Z,2.17
2022-07-26T21:48:24.007Z,1.87
2022-07-26T21:50:51.728Z,2.10
2022-07-26T21:53:19.635Z,1.83
2022-07-26T21:55:48.710Z,1.93
2022-07-26T21:58:16.687Z,1.80
2022-07-26T22:00:44.526Z,1.70
2022-07-26T22:03:12.290Z,1.70
2022-07-26T22:05:41.796Z,1.87
2022-07-26T22:08:11.476Z,1.67
2022-07-26T22:10:44.764Z,1.80
2022-07-26T22:13:14.489Z,1.90
2022-07-26T22:15:42.645Z,1.60
2022-07-26T22:18:10.389Z,2.07
2022-07-26T22:20:38.196Z,1.70
2022-07-26T22:23:07.034Z,2.30
2022-07-26T22:25:35.379Z,2.33
2022-07-26T22:28:03.842Z,3.67
2022-07-26T22:30:33.031Z,1.90
2022-07-26T22:33:02.305Z,1.50
2022-07-26T22:35:33.485Z,1.50
2022-07-26T22:38:05.957Z,1.70
2022-07-26T22:40:33.825Z,1.47
2022-07-26T22:43:01.654Z,1.40
2022-07-26T22:45:31.039Z,1.47
2022-07-26T22:48:00.285Z,2.20
2022-07-26T22:50:28.442Z,2.00
2022-07-26T22:52:56.153Z,2.03
2022-07-26T22:55:24.576Z,1.70
2022-07-26T22:57:52.483Z,2.00
2022-07-26T23:00:20.974Z,1.60
2022-07-26T23:02:48.928Z,2.50
2022-07-26T23:05:18.319Z,1.47
2022-07-26T23:07:48.038Z,1.90
2022-07-26T23:10:16.713Z,2.03
2022-07-26T23:12:44.614Z,1.70
2022-07-26T23:15:13.550Z,1.80
2022-07-26T23:17:41.358Z,1.77
2022-07-26T23:20:10.881Z,2.17
2022-07-26T23:22:41.855Z,1.60
2022-07-26T23:25:10.079Z,1.77
2022-07-26T23:27:37.697Z,1.93
2022-07-26T23:30:06.013Z,1.77
2022-07-26T23:32:33.830Z,2.73
2022-07-26T23:35:01.452Z,2.50
2022-07-26T23:37:29.123Z,1.77
2022-07-26T23:39:58.235Z,2.43
2022-07-26T23:42:25.883Z,1.87
2022-07-26T23:44:53.832Z,1.80
2022-07-26T23:47:21.546Z,1.67
2022-07-26T23:49:49.156Z,2.00
2022-07-26T23:52:16.960Z,2.60
2022-07-26T23:54:44.655Z,2.00
2022-07-26T23:57:14.080Z,1.53
2022-07-26T23:59:41.684Z,1.80
